Trubcevsk, Russia
Current Conditions -  °F | °C
As of 8:00 PM on Friday 19 Dec 2014 (Local Time) from UMGG Reporting Station
Drizzle Drizzle  
Wind Chill: 35°   Ceiling: 200
Heat Index: 43°   Visibility: 1.8mi
Dew Point: 43°   Wind: 16mph
Humidity: 100%   Direction: 220°SW
Pressure: 29.68"   Gusts: NA
Location:  52.58°N, 33.79°E
Report Text: UMGG 191700Z 22007MPS 3000 -DZ BR OVC002 06/06 Q1005 R28/290050TEMPO 1400 RMK QBB080
Loading
Personal Weather Stations






























Interactive Weather Map New forecast layout! Learn more

10-Day Weather Forecast

Advertisements
Track Severe Weather on mobile